Time;durP1;ratioP1;P1;durP2;ratioP2;P2;SDS_P1;SDS_P2;PMS_P1;PMS_P2;Temp;Humidity;BMP_temperature;BMP_pressure;BME280_temperature;BME280_humidity;BME280_pressure;Samples;Min_cycle;Max_cycle;Signal;HPM_P1;HPM_P2
2022/06/16 00:01:44;;;;;;;1999.90;999.90;;;;;;;21.52;51.08;95248.88;5009408;28;20026;-68
2022/06/16 00:04:10;;;;;;;1999.90;999.90;;;;;;;21.91;51.42;95303.44;5009807;28;20033;-68
2022/06/16 00:06:36;;;;;;;1999.90;999.90;;;;;;;21.50;51.23;95232.25;5009387;28;20034;-68
2022/06/16 00:09:01;;;;;;;1999.90;999.90;;;;;;;21.88;50.99;95292.56;5009631;28;20049;-68
2022/06/16 00:11:27;;;;;;;1999.90;999.90;;;;;;;21.66;50.97;95250.97;5009287;28;20455;-67
2022/06/16 00:13:52;;;;;;;1999.90;999.90;;;;;;;22.23;50.85;95351.75;5009753;28;20026;-67
2022/06/16 00:16:21;;;;;;;1999.90;999.90;;;;;;;22.37;50.98;95357.28;5009558;28;20029;-68
2022/06/16 00:18:47;;;;;;;1999.90;999.90;;;;;;;21.66;51.00;95272.63;5009396;28;20113;-67
2022/06/16 00:21:13;;;;;;;1999.90;999.90;;;;;;;21.07;50.97;95185.00;5009299;28;20156;-68
2022/06/16 00:23:39;;;;;;;1999.90;999.90;;;;;;;22.10;50.87;95315.97;5009777;28;20022;-68
2022/06/16 00:26:11;;;;;;;1999.90;999.90;;;;;;;22.54;50.47;95404.66;5009589;28;20030;-68
2022/06/16 00:28:37;;;;;;;1999.90;999.90;;;;;;;22.50;50.56;95399.19;5009386;28;20018;-68
2022/06/16 00:31:04;;;;;;;1999.90;999.90;;;;;;;21.91;50.56;95289.13;5009221;28;20033;-68
2022/06/16 00:33:31;;;;;;;1999.90;999.90;;;;;;;21.77;50.40;95287.03;5012805;28;20026;-67
2022/06/16 00:35:56;;;;;;;1999.90;999.90;;;;;;;21.51;50.37;95233.81;5013307;28;20105;-68
2022/06/16 00:38:23;;;;;;;1999.90;999.90;;;;;;;21.90;50.62;95268.59;5013275;28;20586;-68
2022/06/16 00:40:48;;;;;;;1999.90;999.90;;;;;;;21.76;49.92;95253.78;5012888;28;20080;-68
2022/06/16 00:43:14;;;;;;;1999.90;999.90;;;;;;;22.16;50.03;95321.84;5013116;28;20030;-69
2022/06/16 00:45:43;;;;;;;1999.90;999.90;;;;;;;22.03;49.97;95300.44;5013210;28;20496;-68
2022/06/16 00:48:31;;;;;;;1999.90;999.90;;;;;;;21.56;49.64;95233.47;5013062;28;20050;-67
2022/06/16 00:51:22;;;;;;;1999.90;999.90;;;;;;;22.83;49.75;95416.53;5013085;28;20087;-67
2022/06/16 00:53:48;;;;;;;1999.90;999.90;;;;;;;21.57;49.78;95234.25;5012674;28;20109;-67
2022/06/16 00:56:19;;;;;;;1999.90;999.90;;;;;;;21.94;49.51;95296.47;5013010;28;20425;-67
2022/06/16 00:58:48;;;;;;;1999.90;999.90;;;;;;;21.54;49.49;95244.66;5012874;28;20026;-68
2022/06/16 01:01:19;;;;;;;1999.90;999.90;;;;;;;22.08;49.43;95320.22;5012713;28;20026;-68
2022/06/16 01:06:30;;;;;;;1999.90;999.90;;;;;;;21.55;49.91;95280.63;5013015;28;20088;-68
2022/06/16 01:09:07;;;;;;;1999.90;999.90;;;;;;;21.60;49.98;95304.66;5012499;28;20021;-68
2022/06/16 01:15:15;;;;;;;1999.90;999.90;;;;;;;22.43;49.87;95420.84;5012510;28;20548;-66
2022/06/16 01:18:01;;;;;;;1999.90;999.90;;;;;;;21.36;50.22;95281.59;5012478;28;20030;-67
2022/06/16 01:20:43;;;;;;;1999.90;999.90;;;;;;;21.68;50.31;95340.69;5011947;28;20494;-67
2022/06/16 01:23:29;;;;;;;1999.90;999.90;;;;;;;22.29;50.24;95410.63;5012414;28;20514;-67
2022/06/16 01:26:22;;;;;;;1999.90;999.90;;;;;;;22.24;50.10;95416.38;5012355;28;20428;-67
2022/06/16 01:29:10;;;;;;;1999.90;999.90;;;;;;;22.19;50.09;95415.94;5012313;28;20025;-67
2022/06/16 01:31:54;;;;;;;1999.90;999.90;;;;;;;22.19;50.02;95415.94;5010571;28;20071;-66
2022/06/16 01:34:31;;;;;;;1999.90;999.90;;;;;;;21.17;50.23;95290.59;5012103;28;20022;-67
2022/06/16 01:37:13;;;;;;;1999.90;999.90;;;;;;;21.16;50.25;95285.56;5012260;28;20539;-67
2022/06/16 01:40:07;;;;;;;1999.90;999.90;;;;;;;20.96;50.24;95261.38;5012055;28;20069;-68
2022/06/16 01:42:40;;;;;;;1999.90;999.90;;;;;;;21.32;50.09;95293.50;5012222;28;20371;-66
2022/06/16 01:45:31;;;;;;;1999.90;999.90;;;;;;;22.13;49.74;95412.00;5011279;28;20097;-67
2022/06/16 01:47:58;;;;;;;1999.90;999.90;;;;;;;21.14;49.60;95285.94;5011795;28;20045;-67
2022/06/16 01:50:35;;;;;;;1999.90;999.90;;;;;;;21.24;49.93;95277.16;5011338;28;20169;-67
2022/06/16 01:53:09;;;;;;;1999.90;999.90;;;;;;;20.56;50.12;95188.25;5011959;28;20108;-66
2022/06/16 01:55:39;;;;;;;1999.90;999.90;;;;;;;21.33;49.56;95257.19;5011849;28;20509;-66
2022/06/16 01:58:10;;;;;;;1999.90;999.90;;;;;;;21.25;49.26;95257.09;5011755;28;20490;-68
2022/06/16 02:00:35;;;;;;;1999.90;999.90;;;;;;;21.53;49.28;95272.88;5011197;28;20030;-67
2022/06/16 02:03:06;;;;;;;1999.90;999.90;;;;;;;22.44;49.00;95406.13;5011762;28;20033;-67
2022/06/16 02:05:47;;;;;;;1999.90;999.90;;;;;;;21.36;49.04;95251.81;5011666;28;20033;-66
2022/06/16 02:08:18;;;;;;;1999.90;999.90;;;;;;;22.36;48.80;95420.75;5011677;28;20026;-66
2022/06/16 02:10:49;;;;;;;1999.90;999.90;;;;;;;21.12;49.25;95212.47;5011083;28;20025;-67
2022/06/16 02:13:30;;;;;;;1999.90;999.90;;;;;;;21.55;49.04;95272.53;5011677;28;20900;-66
2022/06/16 02:16:01;;;;;;;1999.90;999.90;;;;;;;21.60;48.92;95266.78;5011460;28;20745;-67
2022/06/16 02:18:35;;;;;;;1999.90;999.90;;;;;;;21.59;49.18;95265.19;5011276;28;20273;-68
2022/06/16 02:21:22;;;;;;;1999.90;999.90;;;;;;;22.48;48.85;95398.81;5010421;28;20117;-66
2022/06/16 02:23:48;;;;;;;1999.90;999.90;;;;;;;22.15;48.99;95356.28;5010252;28;20478;-67
2022/06/16 02:26:15;;;;;;;1999.90;999.90;;;;;;;21.26;48.74;95228.09;5011327;28;20105;-66
2022/06/16 02:28:48;;;;;;;1999.90;999.90;;;;;;;22.52;48.71;95398.81;5010998;28;20022;-67
2022/06/16 02:31:38;;;;;;;1999.90;999.90;;;;;;;21.28;48.75;95233.91;5011012;28;20026;-66
2022/06/16 02:34:31;;;;;;;1999.90;999.90;;;;;;;22.45;49.05;95406.91;5011175;28;20025;-67
2022/06/16 02:37:39;;;;;;;1999.90;999.90;;;;;;;22.40;48.94;95401.81;5011021;28;20391;-67
2022/06/16 02:40:35;;;;;;;1999.90;999.90;;;;;;;22.39;49.25;95400.28;5010565;28;20422;-67
2022/06/16 02:43:12;;;;;;;1999.90;999.90;;;;;;;22.31;49.33;95394.75;5011001;28;20505;-67
2022/06/16 02:45:56;;;;;;;1999.90;999.90;;;;;;;20.94;49.50;95223.09;5010978;28;20030;-67
2022/06/16 02:48:38;;;;;;;1999.90;999.90;;;;;;;21.21;49.41;95256.25;5010733;28;20037;-67
2022/06/16 02:51:26;;;;;;;1999.90;999.90;;;;;;;21.11;49.54;95229.88;5010451;28;20026;-66
2022/06/16 02:54:20;;;;;;;1999.90;999.90;;;;;;;21.31;49.75;95267.59;5010814;28;20036;-67
2022/06/16 02:57:18;;;;;;;1999.90;999.90;;;;;;;21.19;49.98;95250.44;5010579;28;20025;-66
2022/06/16 02:59:48;;;;;;;1999.90;999.90;;;;;;;20.89;50.02;95218.03;5010976;28;20130;-67
2022/06/16 03:02:22;;;;;;;1999.90;999.90;;;;;;;21.07;50.18;95237.16;5010393;28;20017;-67
2022/06/16 03:04:51;;;;;;;1999.90;999.90;;;;;;;20.62;50.20;95179.44;5010414;28;20038;-66
2022/06/16 03:07:17;;;;;;;1999.90;999.90;;;;;;;21.12;50.38;95238.75;5010507;28;20502;-66
2022/06/16 03:09:43;;;;;;;1999.90;999.90;;;;;;;20.89;50.38;95239.66;5010558;28;20456;-67
2022/06/16 03:12:10;;;;;;;1999.90;999.90;;;;;;;20.96;50.46;95228.91;5010142;28;20049;-68
2022/06/16 03:14:36;;;;;;;1999.90;999.90;;;;;;;21.07;50.58;95239.84;5009048;28;20068;-68
2022/06/16 03:17:02;;;;;;;1999.90;999.90;;;;;;;21.75;50.51;95352.41;5010729;28;20045;-68
2022/06/16 03:19:28;;;;;;;1999.90;999.90;;;;;;;20.68;50.37;95180.69;5010375;28;20034;-67
2022/06/16 03:21:54;;;;;;;1999.90;999.90;;;;;;;21.07;50.33;95264.19;5008856;28;20018;-67
2022/06/16 03:24:20;;;;;;;1999.90;999.90;;;;;;;21.71;50.31;95342.69;5010179;28;20029;-67
2022/06/16 03:26:46;;;;;;;1999.90;999.90;;;;;;;21.19;50.24;95253.16;5010435;28;20442;-67
2022/06/16 03:29:12;;;;;;;1999.90;999.90;;;;;;;21.13;49.98;95249.19;5010242;28;20490;-67
2022/06/16 03:31:38;;;;;;;1999.90;999.90;;;;;;;21.09;50.02;95234.88;5009942;28;20030;-67
2022/06/16 03:34:03;;;;;;;1999.90;999.90;;;;;;;21.22;49.66;95252.41;5010684;28;20034;-68
2022/06/16 03:36:29;;;;;;;1999.90;999.90;;;;;;;21.90;49.54;95366.06;5010238;28;20026;-67
2022/06/16 03:38:54;;;;;;;1999.90;999.90;;;;;;;20.87;49.79;95184.38;5010119;28;20022;-68
2022/06/16 03:41:20;;;;;;;1999.90;999.90;;;;;;;22.06;49.31;95350.41;5009763;28;20109;-67
2022/06/16 03:43:45;;;;;;;1999.90;999.90;;;;;;;21.89;49.17;95337.44;5010130;28;20034;-67
2022/06/16 03:46:12;;;;;;;1999.90;999.90;;;;;;;21.22;49.25;95235.38;5010201;28;20022;-68
2022/06/16 03:48:38;;;;;;;1999.90;999.90;;;;;;;22.35;48.99;95413.78;5009524;28;20033;-68
2022/06/16 03:51:05;;;;;;;1999.90;999.90;;;;;;;22.37;48.95;95410.69;5008453;28;20030;-68
2022/06/16 03:53:32;;;;;;;1999.90;999.90;;;;;;;21.64;48.54;95258.66;5009763;28;20113;-67
2022/06/16 03:55:57;;;;;;;1999.90;999.90;;;;;;;22.05;48.52;95313.59;5009818;28;20065;-66
2022/06/16 03:58:23;;;;;;;1999.90;999.90;;;;;;;22.09;48.39;95317.13;5009961;28;20022;-67
2022/06/16 04:00:48;;;;;;;1999.90;999.90;;;;;;;21.85;47.95;95258.09;5009123;28;20113;-67
2022/06/16 04:05:57;;;;;;;1999.90;999.90;;;;;;;22.14;47.32;95235.53;5009677;28;20040;-68
2022/06/16 04:08:22;;;;;;;1999.90;999.90;;;;;;;22.38;46.56;95238.81;5014270;28;20030;-68
2022/06/16 04:10:48;;;;;;;1999.90;999.90;;;;;;;22.92;46.12;95289.50;5015816;28;20029;-67
2022/06/16 04:13:15;;;;;;;1999.90;999.90;;;;;;;22.82;45.80;95217.75;5016646;28;20026;-68
2022/06/16 04:15:41;;;;;;;1999.90;999.90;;;;;;;23.28;44.82;95241.59;5016153;28;20108;-68
2022/06/16 04:18:07;;;;;;;1999.90;999.90;;;;;;;24.01;44.28;95309.31;5016094;28;20110;-68
2022/06/16 04:20:33;;;;;;;1999.90;999.90;;;;;;;24.29;43.62;95313.22;5015777;28;20025;-68
2022/06/16 04:22:59;;;;;;;1999.90;999.90;;;;;;;24.27;43.08;95296.53;5015963;28;20022;-67
2022/06/16 04:25:32;;;;;;;1999.90;999.90;;;;;;;24.41;43.46;95328.41;5016301;28;20567;-66
2022/06/16 04:28:04;;;;;;;1999.90;999.90;;;;;;;24.15;43.42;95297.66;5016043;28;20034;-66
2022/06/16 04:30:29;;;;;;;1999.90;999.90;;;;;;;23.71;43.70;95262.72;5015546;28;20050;-68
2022/06/16 04:32:57;;;;;;;1999.90;999.90;;;;;;;23.75;43.91;95286.00;5015929;28;20058;-67
2022/06/16 04:35:23;;;;;;;1999.90;999.90;;;;;;;23.52;44.15;95247.50;5016197;28;20026;-67
2022/06/16 04:37:48;;;;;;;1999.90;999.90;;;;;;;24.27;44.38;95361.78;5015993;28;20034;-67
2022/06/16 04:40:14;;;;;;;1999.90;999.90;;;;;;;23.80;44.50;95287.53;5015773;28;20819;-67
2022/06/16 04:42:39;;;;;;;1999.90;999.90;;;;;;;23.61;44.46;95245.19;5015821;28;20445;-67
2022/06/16 04:45:05;;;;;;;1999.90;999.90;;;;;;;23.86;44.14;95240.59;5015928;28;20470;-68
2022/06/16 04:47:31;;;;;;;1999.90;999.90;;;;;;;23.85;43.27;95220.03;5015767;28;20056;-68
2022/06/16 04:49:56;;;;;;;1999.90;999.90;;;;;;;25.34;43.19;95406.09;5015449;28;20126;-68
2022/06/16 04:52:21;;;;;;;1999.90;999.90;;;;;;;24.96;42.22;95287.91;5015760;28;20030;-68
2022/06/16 04:54:48;;;;;;;1999.90;999.90;;;;;;;24.93;42.06;95241.66;5015765;28;20030;-68
2022/06/16 04:57:14;;;;;;;1999.90;999.90;;;;;;;25.76;41.46;95346.44;5016044;28;20438;-68
2022/06/16 04:59:41;;;;;;;1999.90;999.90;;;;;;;25.61;41.19;95272.91;5016075;28;20033;-68
2022/06/16 05:02:06;;;;;;;1999.90;999.90;;;;;;;25.81;40.30;95269.72;5015767;28;20033;-68
2022/06/16 05:04:33;;;;;;;1999.90;999.90;;;;;;;26.02;40.14;95283.19;5015861;28;20030;-68
2022/06/16 05:06:58;;;;;;;1999.90;999.90;;;;;;;26.14;40.06;95304.53;5015927;28;20112;-67
2022/06/16 05:09:24;;;;;;;1999.90;999.90;;;;;;;25.82;40.16;95233.91;5015888;28;20108;-68
2022/06/16 05:11:49;;;;;;;1999.90;999.90;;;;;;;26.15;40.19;95275.31;5015237;28;20053;-68
2022/06/16 05:14:15;;;;;;;1999.90;999.90;;;;;;;26.31;39.77;95256.50;5015714;28;20022;-67
2022/06/16 05:16:41;;;;;;;1999.90;999.90;;;;;;;26.36;39.76;95258.00;5015563;28;20559;-67
2022/06/16 05:19:07;;;;;;;1999.90;999.90;;;;;;;26.66;39.13;95290.09;5011917;28;20029;-67
2022/06/16 05:21:32;;;;;;;1999.90;999.90;;;;;;;26.80;38.67;95287.25;5012203;28;20053;-68
2022/06/16 05:23:57;;;;;;;1999.90;999.90;;;;;;;27.40;38.98;95367.03;5012373;28;20025;-68
2022/06/16 05:26:23;;;;;;;1999.90;999.90;;;;;;;27.38;38.79;95348.31;5011257;28;20030;-68
2022/06/16 05:28:48;;;;;;;1999.90;999.90;;;;;;;27.12;38.61;95269.78;5012341;28;20018;-68
2022/06/16 05:31:14;;;;;;;1999.90;999.90;;;;;;;28.02;38.18;95395.97;5011920;28;20022;-68
2022/06/16 05:33:39;;;;;;;1999.90;999.90;;;;;;;27.54;37.85;95289.56;5012164;28;20030;-68
2022/06/16 05:36:08;;;;;;;1999.90;999.90;;;;;;;27.88;37.70;95295.78;5012403;28;20356;-67
2022/06/16 05:38:34;;;;;;;1999.90;999.90;;;;;;;28.34;37.44;95299.81;5012101;28;20025;-67
2022/06/16 05:41:06;;;;;;;1999.90;999.90;;;;;;;28.98;36.80;95345.31;5011615;28;20096;-68
2022/06/16 05:43:33;;;;;;;1999.90;999.90;;;;;;;29.16;35.66;95322.28;5010869;28;20026;-67
2022/06/16 05:45:59;;;;;;;1999.90;999.90;;;;;;;29.97;35.32;95369.25;5012046;28;20025;-67
2022/06/16 05:48:25;;;;;;;1999.90;999.90;;;;;;;29.86;34.86;95313.09;5011884;28;20105;-67
2022/06/16 05:50:50;;;;;;;1999.90;999.90;;;;;;;30.55;34.43;95435.41;5011547;28;20109;-67
2022/06/16 05:53:16;;;;;;;1999.90;999.90;;;;;;;30.15;34.16;95395.53;5011570;28;20026;-68
2022/06/16 05:55:42;;;;;;;1999.90;999.90;;;;;;;29.19;35.28;95346.09;5011788;28;20394;-68
2022/06/16 05:58:07;;;;;;;1999.90;999.90;;;;;;;28.64;35.13;95312.59;5011853;28;20022;-69
2022/06/16 06:00:32;;;;;;;1999.90;999.90;;;;;;;29.09;35.44;95333.38;5011387;28;20021;-69
2022/06/16 06:02:58;;;;;;;1999.90;999.90;;;;;;;27.89;36.58;95296.53;5011711;28;20100;-67
2022/06/16 06:05:26;;;;;;;1999.90;999.90;;;;;;;28.80;36.47;95322.91;5010507;28;20030;-67
2022/06/16 06:18:48;;;;;;;1999.90;999.90;;;;;;;28.66;35.46;95331.34;5011593;28;20048;-69
2022/06/16 06:21:14;;;;;;;1999.90;999.90;;;;;;;29.32;36.40;95442.13;5011249;28;20517;-67
2022/06/16 06:23:39;;;;;;;1999.90;999.90;;;;;;;28.26;37.10;95440.59;5033176;22;20046;-69
2022/06/16 06:26:04;;;;;;;1999.90;999.90;;;;;;;28.31;37.69;95442.88;5030324;28;20417;-69
2022/06/16 06:28:30;;;;;;;1999.90;999.90;;;;;;;27.28;39.74;95452.19;5029852;28;20473;-69
2022/06/16 06:30:56;;;;;;;1999.90;999.90;;;;;;;28.07;38.71;95444.72;5028941;28;20097;-69
2022/06/16 06:33:21;;;;;;;1999.90;999.90;;;;;;;28.18;38.68;95430.91;5029816;28;20113;-69
2022/06/16 06:35:46;;;;;;;1999.90;999.90;;;;;;;28.46;38.09;95444.25;5031164;28;20065;-69
2022/06/16 06:38:12;;;;;;;1999.90;999.90;;;;;;;28.45;38.58;95445.41;5031041;28;20041;-69
2022/06/16 06:40:39;;;;;;;1999.90;999.90;;;;;;;29.42;37.50;95439.22;5029033;28;20025;-69
2022/06/16 06:43:05;;;;;;;1999.90;999.90;;;;;;;30.28;36.24;95438.38;5029671;28;20382;-69
2022/06/16 06:45:30;;;;;;;1999.90;999.90;;;;;;;30.36;34.72;95439.00;5030797;28;20048;-69
2022/06/16 06:47:56;;;;;;;1999.90;999.90;;;;;;;30.79;34.25;95433.34;5030799;28;20026;-71
2022/06/16 06:50:23;;;;;;;1999.90;999.90;;;;;;;28.46;36.77;95444.25;5030333;28;20101;-69
2022/06/16 06:52:50;;;;;;;1999.90;999.90;;;;;;;27.91;38.68;95442.59;5030729;28;20076;-69
2022/06/16 06:55:16;;;;;;;1999.90;999.90;;;;;;;27.57;40.12;95447.22;5029594;28;20029;-69
2022/06/16 06:57:41;;;;;;;1999.90;999.90;;;;;;;27.95;39.69;95448.03;5029396;28;20533;-69
2022/06/16 07:00:08;;;;;;;1999.90;999.90;;;;;;;27.87;39.87;95441.06;5028898;28;20035;-69
2022/06/16 07:02:33;;;;;;;1999.90;999.90;;;;;;;27.43;40.60;95470.75;5029400;28;20031;-69
2022/06/16 07:04:59;;;;;;;1999.90;999.90;;;;;;;26.75;41.95;95470.53;5030483;28;20030;-69
2022/06/16 07:07:24;;;;;;;1999.90;999.90;;;;;;;27.39;41.35;95464.59;5030682;28;20358;-70
2022/06/16 07:09:50;;;;;;;1999.90;999.90;;;;;;;27.99;40.40;95473.34;5029115;28;20040;-69
2022/06/16 07:12:16;;;;;;;1999.90;999.90;;;;;;;26.87;41.57;95461.06;5029998;28;20032;-69
2022/06/16 07:14:46;;;;;;;1999.90;999.90;;;;;;;27.19;41.73;95477.25;5030371;28;20445;-69
2022/06/16 07:17:13;;;;;;;1999.90;999.90;;;;;;;26.89;42.04;95469.66;5028864;28;20116;-69
2022/06/16 07:19:38;;;;;;;1999.90;999.90;;;;;;;26.88;42.31;95466.16;5028837;28;20110;-69
2022/06/16 07:22:05;;;;;;;1999.90;999.90;;;;;;;27.62;40.90;95476.84;5028693;28;20491;-69
2022/06/16 07:24:31;;;;;;;1999.90;999.90;;;;;;;27.17;42.16;95474.91;5028649;28;20541;-68
2022/06/16 07:26:58;;;;;;;1999.90;999.90;;;;;;;26.55;42.89;95485.84;5030083;28;20026;-68
2022/06/16 07:29:23;;;;;;;1999.90;999.90;;;;;;;26.16;44.25;95487.59;5028825;28;20116;-69
2022/06/16 07:31:48;;;;;;;1999.90;999.90;;;;;;;26.34;43.35;95467.63;5028294;28;20109;-69
2022/06/16 07:34:15;;;;;;;1999.90;999.90;;;;;;;27.53;41.71;95460.16;5028636;28;20061;-69
2022/06/16 07:36:41;;;;;;;1999.90;999.90;;;;;;;27.48;41.39;95466.81;5029804;28;20048;-69
2022/06/16 07:39:07;;;;;;;1999.90;999.90;;;;;;;27.06;42.81;95467.97;5028806;28;20009;-69
2022/06/16 07:41:34;;;;;;;1999.90;999.90;;;;;;;28.12;40.98;95446.25;5027635;28;20071;-69
2022/06/16 07:44:00;;;;;;;1999.90;999.90;;;;;;;27.45;42.00;95462.97;5030077;28;20025;-69
2022/06/16 07:46:26;;;;;;;1999.90;999.90;;;;;;;27.85;40.91;95463.34;5030031;28;20030;-69
2022/06/16 07:48:53;;;;;;;1999.90;999.90;;;;;;;27.63;40.98;95448.34;5028498;28;20625;-70
2022/06/16 07:51:19;;;;;;;1999.90;999.90;;;;;;;27.15;42.75;95443.72;5028091;28;20048;-70
2022/06/16 07:53:45;;;;;;;1999.90;999.90;;;;;;;28.44;39.92;95441.13;5029641;28;20021;-70
2022/06/16 07:56:10;;;;;;;1999.90;999.90;;;;;;;28.02;40.36;95444.41;5028370;28;20033;-70
2022/06/16 07:58:35;;;;;;;1999.90;999.90;;;;;;;28.44;39.84;95430.19;5029469;28;20032;-69
2022/06/16 08:01:04;;;;;;;1999.90;999.90;;;;;;;28.42;40.38;95434.53;5027624;28;20052;-69
2022/06/16 08:03:29;;;;;;;1999.90;999.90;;;;;;;27.14;42.13;95434.78;5028232;28;20463;-69
2022/06/16 08:05:56;;;;;;;1999.90;999.90;;;;;;;27.35;41.47;95441.97;5029686;28;20027;-70
2022/06/16 08:08:23;;;;;;;1999.90;999.90;;;;;;;26.65;42.61;95435.91;5027867;28;20051;-69
2022/06/16 08:10:52;;;;;;;1999.90;999.90;;;;;;;27.00;42.64;95453.19;5029397;28;20473;-70
2022/06/16 08:13:19;;;;;;;1999.90;999.90;;;;;;;27.08;42.39;95449.25;5029834;28;20029;-69
2022/06/16 08:15:46;;;;;;;1999.90;999.90;;;;;;;28.15;40.25;95448.94;5029744;28;20041;-69
2022/06/16 08:18:17;;;;;;;1999.90;999.90;;;;;;;28.77;37.68;95449.66;5029511;28;20117;-70
2022/06/16 08:20:42;;;;;;;;;;;;;;;29.62;36.37;95466.69;5029549;28;20029;-70
2022/06/16 08:23:09;;;;;;;1999.90;999.90;;;;;;;29.09;36.92;95456.63;5028020;28;19971;-70
2022/06/16 08:25:35;;;;;;;1999.90;999.90;;;;;;;29.15;36.30;95461.22;5028028;28;20029;-70
2022/06/16 08:28:02;;;;;;;1999.90;999.90;;;;;;;30.07;34.90;95465.44;5029335;28;20378;-70
2022/06/16 08:30:29;;;;;;;1999.90;999.90;;;;;;;31.16;32.36;95474.47;5028763;28;20032;-69
2022/06/16 08:32:55;;;;;;;1999.90;999.90;;;;;;;30.73;32.95;95473.50;5029431;28;20033;-69
2022/06/16 08:35:20;;;;;;;1999.90;999.90;;;;;;;29.31;34.12;95479.72;5029173;28;20034;-69
2022/06/16 08:37:45;;;;;;;1999.90;999.90;;;;;;;28.41;36.12;95490.47;5029153;28;20026;-68
2022/06/16 08:40:12;;;;;;;1999.90;999.90;;;;;;;28.50;36.70;95510.63;5028856;28;20390;-69
2022/06/16 08:42:50;;;;;;;1999.90;999.90;;;;;;;28.72;36.69;95513.09;5027346;28;20377;-69
2022/06/16 08:45:22;;;;;;;1999.90;999.90;;;;;;;28.84;37.59;95504.31;5029341;28;20030;-69
2022/06/16 08:48:43;;;;;;;1999.90;999.90;;;;;;;28.12;39.39;95504.44;5029003;28;20029;-69
2022/06/16 08:51:08;;;;;;;;;;;;;;;28.29;40.15;95512.84;4995899;28;20045;-69
2022/06/16 08:53:56;;;;;;;1999.90;999.90;;;;;;;28.44;40.02;95498.59;5029477;28;19913;-69
2022/06/16 08:56:46;;;;;;;1999.90;999.90;;;;;;;27.47;40.51;95498.84;5031425;28;20363;-69
2022/06/16 08:59:25;;;;;;;1999.90;999.90;;;;;;;27.75;40.55;95491.59;5032772;28;20025;-68
2022/06/16 09:02:06;;;;;;;1999.90;999.90;;;;;;;27.64;40.66;95490.88;5032322;28;20021;-68
2022/06/16 09:04:31;;;;;;;;;;;;;;;27.60;41.18;95496.38;5033158;28;20029;-68
2022/06/16 09:07:31;;;;;;;1999.90;999.90;;;;;;;28.09;40.86;95507.97;5031466;28;19913;-68
2022/06/16 09:10:18;;;;;;;1999.90;999.90;;;;;;;28.04;40.39;95507.66;5032371;28;20025;-68
2022/06/16 09:13:15;;;;;;;1999.90;999.90;;;;;;;28.02;40.67;95512.78;5031652;28;20521;-69
2022/06/16 09:16:07;;;;;;;1999.90;999.90;;;;;;;28.92;39.01;95497.56;5032441;28;20033;-68
2022/06/16 09:18:59;;;;;;;1999.90;999.90;;;;;;;29.48;38.50;95514.28;5030933;28;20076;-70
2022/06/16 09:21:42;;;;;;;1999.90;999.90;;;;;;;29.47;38.26;95507.25;5032356;28;20029;-69
2022/06/16 09:24:25;;;;;;;1999.90;999.90;;;;;;;29.35;37.67;95518.03;5032433;28;20025;-68
2022/06/16 09:26:53;;;;;;;1999.90;999.90;;;;;;;29.06;38.75;95525.94;5031194;28;20034;-69
2022/06/16 09:29:41;;;;;;;1999.90;999.90;;;;;;;30.19;37.56;95525.97;5032303;28;20029;-69
2022/06/16 09:32:15;;;;;;;1999.90;999.90;;;;;;;30.45;35.82;95518.78;5031999;28;20028;-69
2022/06/16 09:34:47;;;;;;;1999.90;999.90;;;;;;;30.40;37.12;95522.00;5030575;28;20029;-70
2022/06/16 09:37:27;;;;;;;1999.90;999.90;;;;;;;30.13;37.19;95521.41;5031959;28;20026;-69
2022/06/16 09:40:02;;;;;;;1999.90;999.90;;;;;;;30.59;36.04;95516.94;5031884;28;20021;-69
2022/06/16 09:42:37;;;;;;;1999.90;999.90;;;;;;;31.57;33.54;95515.09;5030566;28;20032;-69
2022/06/16 09:45:11;;;;;;;1999.90;999.90;;;;;;;31.06;34.93;95517.47;5030876;28;20104;-69
2022/06/16 09:48:02;;;;;;;1999.90;999.90;;;;;;;31.64;34.25;95530.66;5030760;28;20022;-70
2022/06/16 09:50:38;;;;;;;;;;;;;;;29.92;38.49;95533.53;5030707;28;20018;-69
2022/06/16 09:53:22;;;;;;;1999.90;999.90;;;;;;;29.03;38.87;95548.69;5030588;28;19917;-69
2022/06/16 09:55:55;;;;;;;1999.90;999.90;;;;;;;28.87;39.93;95541.03;5031988;28;20437;-69
2022/06/16 09:58:36;;;;;;;1999.90;999.90;;;;;;;28.79;40.24;95545.06;5031660;28;20029;-68
2022/06/16 10:01:08;;;;;;;1999.90;999.90;;;;;;;29.89;39.02;95543.38;5030023;28;20025;-69
2022/06/16 10:03:51;;;;;;;1999.90;999.90;;;;;;;31.62;36.73;95544.03;5031662;28;20033;-69
2022/06/16 10:06:25;;;;;;;1999.90;999.90;;;;;;;30.94;36.28;95554.63;5029708;28;20083;-70
2022/06/16 10:08:56;;;;;;;1999.90;999.90;;;;;;;31.38;35.92;95547.00;5030209;28;20032;-69
2022/06/16 10:11:42;;;;;;;1999.90;999.90;;;;;;;30.83;36.14;95553.34;5030211;28;20087;-69
2022/06/16 10:14:13;;;;;;;1999.90;999.90;;;;;;;31.71;34.70;95557.97;5031630;28;20025;-69
2022/06/16 10:16:46;;;;;;;1999.90;999.90;;;;;;;33.06;32.95;95561.75;5031324;28;20083;-69
2022/06/16 10:19:11;;;;;;;1999.90;999.90;;;;;;;32.26;33.36;95556.16;5031299;28;20473;-69
2022/06/16 10:21:37;;;;;;;1999.90;999.90;;;;;;;33.10;31.21;95562.41;5031218;28;20117;-69
2022/06/16 10:24:04;;;;;;;1999.90;999.90;;;;;;;32.37;32.57;95550.38;5031109;28;20037;-69
2022/06/16 10:26:29;;;;;;;1999.90;999.90;;;;;;;31.01;35.21;95567.44;5031200;28;20113;-70
2022/06/16 10:29:18;;;;;;;1999.90;999.90;;;;;;;29.86;37.65;95576.34;5031382;28;20475;-69
2022/06/16 10:31:46;;;;;;;1999.90;999.90;;;;;;;29.71;37.58;95570.31;5030859;28;20033;-69
2022/06/16 10:34:38;;;;;;;1999.90;999.90;;;;;;;30.34;36.49;95572.34;5029915;28;20095;-69
2022/06/16 10:37:12;;;;;;;1999.90;999.90;;;;;;;31.10;35.12;95564.09;5030969;28;20093;-69
2022/06/16 10:39:44;;;;;;;1999.90;999.90;;;;;;;30.33;36.99;95579.03;5029555;28;20030;-69
2022/06/16 10:42:15;;;;;;;1999.90;999.90;;;;;;;30.06;39.88;95590.09;5029360;28;20033;-69
2022/06/16 10:44:48;;;;;;;1999.90;999.90;;;;;;;31.16;37.81;95574.16;5029285;28;20137;-69
2022/06/16 10:47:21;;;;;;;1999.90;999.90;;;;;;;31.09;37.82;95579.81;5030593;28;20037;-69
2022/06/16 10:49:48;;;;;;;1999.90;999.90;;;;;;;29.12;40.64;95581.78;5029558;28;20071;-69
2022/06/16 10:52:24;;;;;;;1999.90;999.90;;;;;;;28.15;43.36;95593.91;5028613;28;20514;-69
2022/06/16 10:55:00;;;;;;;1999.90;999.90;;;;;;;29.08;42.14;95584.59;5030712;28;20033;-69
2022/06/16 10:57:29;;;;;;;1999.90;999.90;;;;;;;29.77;40.60;95571.38;5029350;28;20461;-69
2022/06/16 11:00:09;;;;;;;1999.90;999.90;;;;;;;28.61;40.12;95583.59;5028878;28;20045;-69
2022/06/16 11:02:35;;;;;;;1999.90;999.90;;;;;;;28.31;41.42;95582.38;5030456;28;20481;-69
2022/06/16 11:05:10;;;;;;;1999.90;999.90;;;;;;;28.18;40.51;95582.13;5030826;28;20037;-69
2022/06/16 11:07:40;;;;;;;1999.90;999.90;;;;;;;29.03;39.61;95576.06;5030759;28;20029;-69
2022/06/16 11:10:28;;;;;;;1999.90;999.90;;;;;;;29.63;37.87;95566.91;5030173;28;20176;-69
2022/06/16 11:12:54;;;;;;;1999.90;999.90;;;;;;;28.97;38.49;95573.00;5029179;28;20031;-69
2022/06/16 11:15:29;;;;;;;1999.90;999.90;;;;;;;29.14;38.91;95571.19;5030310;28;20377;-69
2022/06/16 11:17:58;;;;;;;1999.90;999.90;;;;;;;29.68;37.05;95562.91;5028992;28;20029;-69
2022/06/16 11:20:34;;;;;;;1999.90;999.90;;;;;;;29.36;35.27;95558.72;5028492;28;20064;-69
2022/06/16 11:23:00;;;;;;;1999.90;999.90;;;;;;;28.85;36.79;95571.56;5029070;28;20036;-70
2022/06/16 11:25:35;;;;;;;1999.90;999.90;;;;;;;29.10;36.27;95560.28;5029154;28;20496;-69
2022/06/16 11:28:11;;;;;;;1999.90;999.90;;;;;;;28.34;35.96;95565.16;5029928;28;20554;-69
2022/06/16 11:30:47;;;;;;;1999.90;999.90;;;;;;;29.16;34.48;95558.63;5028375;28;20026;-69
2022/06/16 11:36:43;;;;;;;1999.90;999.90;;;;;;;30.21;34.65;95556.50;5029955;28;20402;-69